Terminal Aerodrome Forecast
Issued by NWS

Home | Current Version | Previous Version | Text Only | Print | Product List | Glossary On
Versions: 1 2 3 4 5 6 7 8 9 10 11 12 13 14 15 16 17 18 19
061
FTUS44 KEPZ 182342
TAFDMN
TAF
KDMN 182342Z 1900/1924 25017G27KT P6SM SCT050 SCT100 BKN250
      TEMPO 1900/1904 26023G33KT P6SM
     FM190700 23015G25KT P6SM SCT060 SCT100 BKN250
     FM191400 25015G25KT P6SM VCSH FEW020 BKN040 BKN100
     FM191800 23025G35KT P6SM FEW025 BKN040 BKN090=

USA.gov is the U.S. government's official web portal to all federal, state and local government web resources and services.